St John, Virgin Islands
Current Conditions -  °F | °C
As of 10:00 PM on Thursday 30 Oct 2014 (Local Time) from TUPJ Reporting Station
Scattered Clouds Scattered Clouds  
Wind Chill: 82°   Ceiling: Unl
Heat Index: 91°   Visibility: 6mi
Dew Point: 77°   Wind: 10mph
Humidity: 84%   Direction: 190°S
Pressure: 29.85"   Gusts: NA
Location:  18.3333°N, 64.7943°W
Report Text: TUPJ 310200Z 19009KT 9999 SCT019CB 28/25 Q1011 RMK A2986 CB SW NE & NW
Loading
Personal Weather Stations






























Interactive Weather Map New forecast layout! Learn more

10-Day Weather Forecast

Advertisements
Track Severe Weather on mobile